Imperial, Texas
Current Conditions -  °F | °C
As of 11:53 AM on Friday 19 Dec 2014 (Local Time) from KFST Reporting Station
Clear Clear  
Wind Chill: 57°   Ceiling: Unl
Heat Index: 57°   Visibility: 10mi
Dew Point: 36°   Wind: 14mph
Humidity: 45%   Direction: 290°WNW
Pressure: 30.18"   Gusts: 22mph
Location:  31.27°N, 102.69°W
Report Text: KFST 191753Z AUTO 29012G19KT 10SM CLR 14/02 A3018 RMK AO2 SLP197 T01390022 10139 20022 50007 $
Loading
Personal Weather Stations






























Interactive Weather Map New forecast layout! Learn more

10-Day Weather Forecast

Advertisements
Track Severe Weather on mobile